createdAt,value
2018-07-01T00:00:21.101Z,0
2018-07-01T00:01:20.690Z,0
2018-07-01T00:02:20.675Z,0
2018-07-01T00:03:20.678Z,0
2018-07-01T00:04:20.659Z,0
2018-07-01T00:05:20.651Z,0
2018-07-01T00:06:20.631Z,0
2018-07-01T00:07:20.623Z,0
2018-07-01T00:08:20.617Z,0
2018-07-01T00:09:20.606Z,0
2018-07-01T00:10:20.091Z,0
2018-07-01T00:11:20.589Z,0
2018-07-01T00:12:20.316Z,0
2018-07-01T00:13:20.563Z,0
2018-07-01T00:14:20.292Z,0
2018-07-01T00:15:20.301Z,0
2018-07-01T00:16:20.590Z,0
2018-07-01T00:17:20.520Z,0
2018-07-01T00:18:20.504Z,0
2018-07-01T00:19:20.499Z,0
2018-07-01T00:20:20.489Z,0
2018-07-01T00:21:20.485Z,0
2018-07-01T00:22:20.471Z,0
2018-07-01T00:23:20.460Z,0
2018-07-01T00:24:19.932Z,0
2018-07-01T00:25:20.178Z,0
2018-07-01T00:26:20.423Z,0
2018-07-01T00:27:20.416Z,0
2018-07-01T00:28:20.405Z,0
2018-07-01T00:29:20.397Z,0
2018-07-01T00:30:20.392Z,0
2018-07-01T00:31:20.370Z,0
2018-07-01T00:32:20.373Z,0
2018-07-01T00:33:20.368Z,0
2018-07-01T00:34:20.347Z,0
2018-07-01T00:35:20.069Z,0
2018-07-01T00:36:20.080Z,0
2018-07-01T00:37:20.301Z,0
2018-07-01T00:38:20.299Z,0
2018-07-01T00:39:20.280Z,0
2018-07-01T00:40:20.277Z,0
2018-07-01T00:41:20.312Z,0
2018-07-01T00:42:20.252Z,0
2018-07-01T00:43:19.992Z,0
2018-07-01T00:44:19.719Z,0
2018-07-01T00:45:20.224Z,0
2018-07-01T00:46:20.207Z,0
2018-07-01T00:47:20.201Z,0
2018-07-01T00:48:20.183Z,0
2018-07-01T00:49:19.663Z,0
2018-07-01T00:50:19.910Z,0
2018-07-01T00:51:19.904Z,0
2018-07-01T00:52:20.144Z,0
2018-07-01T00:53:20.132Z,0
2018-07-01T00:54:19.867Z,0
2018-07-01T00:55:19.849Z,0
2018-07-01T00:56:19.849Z,0
2018-07-01T00:57:20.087Z,0
2018-07-01T00:58:20.075Z,0
2018-07-01T00:59:20.067Z,0
2018-07-01T01:00:19.799Z,0
2018-07-01T01:01:20.048Z,0
2018-07-01T01:02:20.036Z,0
2018-07-01T01:03:20.021Z,0
2018-07-01T01:04:20.008Z,0
2018-07-01T01:05:19.999Z,0
2018-07-01T01:06:19.474Z,0
2018-07-01T01:07:19.978Z,0
2018-07-01T01:08:19.712Z,0
2018-07-01T01:09:19.954Z,0
2018-07-01T01:10:19.944Z,0
2018-07-01T01:11:19.419Z,0
2018-07-01T01:12:19.921Z,0
2018-07-01T01:13:19.911Z,0
2018-07-01T01:14:19.902Z,0
2018-07-01T01:15:19.631Z,0
2018-07-01T01:16:19.882Z,0
2018-07-01T01:17:19.863Z,0
2018-07-01T01:18:19.856Z,0
2018-07-01T01:19:19.841Z,0
2018-07-01T01:20:19.584Z,0
2018-07-01T01:21:19.827Z,0
2018-07-01T01:22:19.810Z,0
2018-07-01T01:23:19.284Z,0
2018-07-01T01:24:19.790Z,0
2018-07-01T01:25:19.779Z,0
2018-07-01T01:26:19.510Z,0
2018-07-01T01:27:19.758Z,0
2018-07-01T01:28:19.230Z,0
2018-07-01T01:29:19.480Z,0
2018-07-01T01:30:19.725Z,0
2018-07-01T01:31:19.712Z,0
2018-07-01T01:32:19.441Z,0
2018-07-01T01:33:19.177Z,0
2018-07-01T01:34:19.684Z,0
2018-07-01T01:35:19.664Z,0
2018-07-01T01:36:19.655Z,0
2018-07-01T01:37:19.391Z,0
2018-07-01T01:38:19.630Z,0
2018-07-01T01:39:19.624Z,0
2018-07-01T01:40:19.617Z,0
2018-07-01T01:41:19.601Z,0
2018-07-01T01:42:19.351Z,0
2018-07-01T01:43:19.322Z,0
2018-07-01T01:44:19.308Z,0
2018-07-01T01:45:19.556Z,0
2018-07-01T01:46:19.553Z,0
2018-07-01T01:47:19.017Z,0
2018-07-01T01:48:19.526Z,0
2018-07-01T01:49:19.527Z,0
2018-07-01T01:50:19.235Z,0
2018-07-01T01:51:19.224Z,0
2018-07-01T01:52:19.472Z,0
2018-07-01T01:53:19.205Z,0
2018-07-01T01:54:19.187Z,0
2018-07-01T01:55:19.439Z,0
2018-07-01T01:56:19.429Z,0
2018-07-01T01:57:19.160Z,0
2018-07-01T01:58:19.400Z,0
2018-07-01T01:59:19.142Z,0
2018-07-01T02:00:19.122Z,0
2018-07-01T02:01:19.110Z,0
2018-07-01T02:02:19.104Z,0
2018-07-01T02:03:19.089Z,0
2018-07-01T02:04:19.332Z,0
2018-07-01T02:05:19.060Z,0
2018-07-01T02:06:19.050Z,0
2018-07-01T02:07:19.295Z,0
2018-07-01T02:08:19.283Z,0
2018-07-01T02:09:19.276Z,0
2018-07-01T02:10:19.269Z,0
2018-07-01T02:11:19.250Z,0
2018-07-01T02:12:19.234Z,0
2018-07-01T02:13:19.234Z,0
2018-07-01T02:14:18.959Z,0
2018-07-01T02:15:18.687Z,0
2018-07-01T02:16:19.193Z,0
2018-07-01T02:17:18.669Z,0
2018-07-01T02:18:19.164Z,0
2018-07-01T02:19:19.157Z,4
2018-07-01T02:20:19.148Z,4
2018-07-01T02:21:19.133Z,0
2018-07-01T02:22:18.861Z,0
2018-07-01T02:23:18.852Z,4
2018-07-01T02:24:18.893Z,4
2018-07-01T02:25:19.090Z,0
2018-07-01T02:26:18.560Z,4
2018-07-01T02:27:19.058Z,4
2018-07-01T02:28:18.788Z,4
2018-07-01T02:29:19.043Z,8
2018-07-01T02:30:19.030Z,8
2018-07-01T02:31:19.024Z,4
2018-07-01T02:32:19.010Z,4
2018-07-01T02:33:18.999Z,12
2018-07-01T02:34:18.990Z,12
2018-07-01T02:35:19.217Z,8
2018-07-01T02:36:18.959Z,12
2018-07-01T02:37:18.950Z,16
2018-07-01T02:38:18.676Z,16
2018-07-01T02:39:18.923Z,20
2018-07-01T02:40:18.913Z,20
2018-07-01T02:41:18.693Z,24
2018-07-01T02:42:18.386Z,24
2018-07-01T02:43:18.879Z,28
2018-07-01T02:44:18.604Z,36
2018-07-01T02:45:18.645Z,36
2018-07-01T02:46:18.844Z,44
2018-07-01T02:47:18.839Z,48
2018-07-01T02:48:18.555Z,52
2018-07-01T02:49:18.543Z,56
2018-07-01T02:50:18.531Z,64
2018-07-01T02:51:18.778Z,68
2018-07-01T02:52:18.251Z,80
2018-07-01T02:53:18.754Z,84
2018-07-01T02:54:18.225Z,92
2018-07-01T02:55:18.481Z,104
2018-07-01T02:56:18.723Z,112
2018-07-01T02:57:18.712Z,124
2018-07-01T02:58:18.448Z,132
2018-07-01T02:59:18.683Z,144
2018-07-01T03:00:18.411Z,152
2018-07-01T03:01:18.663Z,168
2018-07-01T03:02:18.392Z,180
2018-07-01T03:03:18.379Z,196
2018-07-01T03:04:18.160Z,204
2018-07-01T03:05:18.613Z,220
2018-07-01T03:06:18.599Z,236
2018-07-01T03:07:18.584Z,252
2018-07-01T03:08:18.581Z,268
2018-07-01T03:09:18.562Z,284
2018-07-01T03:10:18.292Z,304
2018-07-01T03:11:18.274Z,320
2018-07-01T03:12:18.531Z,340
2018-07-01T03:13:18.259Z,360
2018-07-01T03:14:18.248Z,376
2018-07-01T03:15:18.490Z,396
2018-07-01T03:16:18.479Z,412
2018-07-01T03:17:18.203Z,436
2018-07-01T03:18:18.468Z,452
2018-07-01T03:19:18.215Z,476
2018-07-01T03:20:18.173Z,500
2018-07-01T03:21:18.156Z,520
2018-07-01T03:22:18.403Z,540
2018-07-01T03:23:18.134Z,560
2018-07-01T03:24:18.388Z,584
2018-07-01T03:25:18.103Z,608
2018-07-01T03:26:18.351Z,628
2018-07-01T03:27:18.344Z,652
2018-07-01T03:28:18.329Z,680
2018-07-01T03:29:18.317Z,700
2018-07-01T03:30:17.790Z,724
2018-07-01T03:31:17.782Z,748
2018-07-01T03:32:18.285Z,768
2018-07-01T03:33:18.012Z,792
2018-07-01T03:34:17.995Z,812
2018-07-01T03:35:18.246Z,836
2018-07-01T03:36:18.229Z,860
2018-07-01T03:37:17.710Z,880
2018-07-01T03:38:17.952Z,908
2018-07-01T03:39:18.193Z,928
2018-07-01T03:40:18.187Z,952
2018-07-01T03:41:17.920Z,968
2018-07-01T03:42:18.157Z,992
2018-07-01T03:43:17.886Z,1012
2018-07-01T03:44:18.134Z,1036
2018-07-01T03:45:18.129Z,1056
2018-07-01T03:46:17.858Z,1072
2018-07-01T03:47:17.842Z,1100
2018-07-01T03:48:17.830Z,1120
2018-07-01T03:49:18.078Z,1140
2018-07-01T03:50:18.143Z,1164
2018-07-01T03:51:17.793Z,1184
2018-07-01T03:52:17.782Z,1200
2018-07-01T03:53:18.035Z,1224
2018-07-01T03:54:17.766Z,1240
2018-07-01T03:55:17.749Z,1260
2018-07-01T03:56:17.479Z,1280
2018-07-01T03:57:17.723Z,1296
2018-07-01T03:58:17.713Z,1316
2018-07-01T03:59:17.443Z,1332
2018-07-01T04:00:17.958Z,1352
2018-07-01T04:01:17.678Z,1368
2018-07-01T04:02:17.670Z,1384
2018-07-01T04:03:17.935Z,1400
2018-07-01T04:04:17.638Z,1416
2018-07-01T04:05:17.629Z,1432
2018-07-01T04:06:17.624Z,1448
2018-07-01T04:07:17.856Z,1464
2018-07-01T04:08:17.849Z,1480
2018-07-01T04:09:17.833Z,1500
2018-07-01T04:10:17.576Z,1516
2018-07-01T04:11:17.811Z,1536
2018-07-01T04:12:17.801Z,1556
2018-07-01T04:13:17.791Z,1572
2018-07-01T04:14:17.518Z,1592
2018-07-01T04:15:17.764Z,1604
2018-07-01T04:16:17.493Z,1620
2018-07-01T04:17:17.479Z,1640
2018-07-01T04:18:17.741Z,1656
2018-07-01T04:19:17.715Z,1676
2018-07-01T04:20:17.702Z,1688
2018-07-01T04:21:17.695Z,1704
2018-07-01T04:22:17.685Z,1716
2018-07-01T04:23:17.668Z,1732
2018-07-01T04:24:17.398Z,1744
2018-07-01T04:25:17.394Z,1760
2018-07-01T04:26:17.425Z,1776
2018-07-01T04:27:17.365Z,1788
2018-07-01T04:28:17.610Z,1804
2018-07-01T04:29:17.339Z,1816
2018-07-01T04:30:17.592Z,1832
2018-07-01T04:31:17.649Z,1844
2018-07-01T04:32:17.316Z,1860
2018-07-01T04:33:17.301Z,1876
2018-07-01T04:34:17.282Z,1896
2018-07-01T04:35:17.525Z,1908
2018-07-01T04:36:17.266Z,1920
2018-07-01T04:37:17.502Z,1936
2018-07-01T04:38:17.491Z,1948
2018-07-01T04:39:16.966Z,1960
2018-07-01T04:40:17.466Z,1976
2018-07-01T04:41:17.468Z,1996
2018-07-01T04:42:17.447Z,2012
2018-07-01T04:43:16.919Z,2028
2018-07-01T04:44:16.909Z,2044
2018-07-01T04:45:17.411Z,2056
2018-07-01T04:46:17.402Z,2072
2018-07-01T04:47:17.392Z,2088
2018-07-01T04:48:17.376Z,2104
2018-07-01T04:49:17.606Z,2116
2018-07-01T04:50:17.095Z,2128
2018-07-01T04:51:17.090Z,2152
2018-07-01T04:52:17.082Z,2144
2018-07-01T04:53:17.070Z,2172
2018-07-01T04:54:17.318Z,2196
2018-07-01T04:55:17.906Z,2412
2018-07-01T04:56:17.032Z,2564
2018-07-01T04:57:17.282Z,2476
2018-07-01T04:58:17.014Z,2392
2018-07-01T04:59:17.315Z,2308
2018-07-01T05:00:17.262Z,2268
2018-07-01T05:01:17.239Z,2280
2018-07-01T05:02:16.888Z,2288
2018-07-01T05:03:17.213Z,2296
2018-07-01T05:04:17.208Z,2308
2018-07-01T05:05:16.681Z,2312
2018-07-01T05:06:17.182Z,2316
2018-07-01T05:07:16.661Z,2320
2018-07-01T05:08:17.290Z,2328
2018-07-01T05:09:16.638Z,2336
2018-07-01T05:10:16.879Z,2340
2018-07-01T05:11:17.139Z,2340
2018-07-01T05:12:16.864Z,2344
2018-07-01T05:13:17.107Z,2348
2018-07-01T05:14:17.098Z,2352
2018-07-01T05:15:16.848Z,2360
2018-07-01T05:16:16.814Z,2364
2018-07-01T05:17:17.513Z,2380
2018-07-01T05:18:16.546Z,2392
2018-07-01T05:19:17.055Z,2404
2018-07-01T05:20:16.789Z,2416
2018-07-01T05:21:17.033Z,2428
2018-07-01T05:22:16.755Z,2444
2018-07-01T05:23:16.742Z,2460
2018-07-01T05:24:16.750Z,2480
2018-07-01T05:25:16.726Z,2500
2018-07-01T05:26:16.975Z,2520
2018-07-01T05:27:16.960Z,2536
2018-07-01T05:28:16.701Z,2552
2018-07-01T05:29:16.695Z,2576
2018-07-01T05:30:16.940Z,2592
2018-07-01T05:31:16.662Z,2604
2018-07-01T05:32:16.913Z,2620
2018-07-01T05:33:16.643Z,2636
2018-07-01T05:34:16.633Z,2652
2018-07-01T05:35:16.948Z,2688
2018-07-01T05:36:16.869Z,2776
2018-07-01T05:37:16.348Z,2980
2018-07-01T05:38:16.854Z,3032
2018-07-01T05:39:16.583Z,2868
2018-07-01T05:40:16.323Z,2860
2018-07-01T05:41:16.829Z,2824
2018-07-01T05:42:16.301Z,2884
2018-07-01T05:43:16.802Z,2940
2018-07-01T05:44:16.801Z,3052
2018-07-01T05:45:16.789Z,3216
2018-07-01T05:46:16.516Z,2992
2018-07-01T05:47:16.506Z,2940
2018-07-01T05:48:16.496Z,2968
2018-07-01T05:49:16.537Z,2952
2018-07-01T05:50:16.742Z,2968
2018-07-01T05:51:16.734Z,2976
2018-07-01T05:52:16.723Z,2988
2018-07-01T05:53:16.453Z,2996
2018-07-01T05:54:16.183Z,3000
2018-07-01T05:55:16.428Z,3016
2018-07-01T05:56:16.426Z,3048
2018-07-01T05:57:17.169Z,3076
2018-07-01T05:58:16.405Z,3076
2018-07-01T05:59:16.651Z,3076
2018-07-01T06:00:16.645Z,3084
2018-07-01T06:01:16.652Z,3100
2018-07-01T06:02:16.113Z,3124
2018-07-01T06:03:16.105Z,3160
2018-07-01T06:04:16.658Z,3180
2018-07-01T06:05:16.600Z,3180
2018-07-01T06:06:16.590Z,3180
2018-07-01T06:07:16.578Z,3148
2018-07-01T06:08:16.574Z,3144
2018-07-01T06:09:16.572Z,3152
2018-07-01T06:10:16.298Z,3140
2018-07-01T06:11:16.287Z,3192
2018-07-01T06:12:16.536Z,3200
2018-07-01T06:13:16.536Z,3268
2018-07-01T06:14:16.629Z,3312
2018-07-01T06:15:16.530Z,3740
2018-07-01T06:16:16.521Z,4260
2018-07-01T06:17:16.496Z,3396
2018-07-01T06:18:16.495Z,3188
2018-07-01T06:19:16.228Z,3196
2018-07-01T06:20:16.480Z,3208
2018-07-01T06:21:16.471Z,3212
2018-07-01T06:22:16.205Z,3216
2018-07-01T06:23:16.192Z,3200
2018-07-01T06:24:16.503Z,3172
2018-07-01T06:25:16.182Z,3156
2018-07-01T06:26:16.176Z,3136
2018-07-01T06:27:16.427Z,3116
2018-07-01T06:28:16.419Z,3096
2018-07-01T06:29:16.406Z,3080
2018-07-01T06:30:16.146Z,3064
2018-07-01T06:31:16.138Z,3048
2018-07-01T06:32:16.397Z,3032
2018-07-01T06:33:16.385Z,3032
2018-07-01T06:34:16.376Z,3036
2018-07-01T06:35:16.366Z,3044
2018-07-01T06:36:16.108Z,3088
2018-07-01T06:37:16.098Z,3164
2018-07-01T06:38:15.832Z,3636
2018-07-01T06:39:16.085Z,4896
2018-07-01T06:40:16.083Z,6580
2018-07-01T06:41:16.330Z,16640
2018-07-01T06:42:16.062Z,35872
2018-07-01T06:43:15.804Z,50656
2018-07-01T06:44:15.799Z,52256
2018-07-01T06:45:16.071Z,51008
2018-07-01T06:46:16.044Z,51264
2018-07-01T06:47:16.298Z,53312
2018-07-01T06:48:16.285Z,53760
2018-07-01T06:49:16.287Z,52000
2018-07-01T06:50:16.028Z,52640
2018-07-01T06:51:16.025Z,54976
2018-07-01T06:52:16.270Z,55232
2018-07-01T06:53:16.266Z,56384
2018-07-01T06:54:16.267Z,57472
2018-07-01T06:55:15.746Z,54720
2018-07-01T06:56:16.007Z,28160
2018-07-01T06:57:15.739Z,5160
2018-07-01T06:58:15.993Z,33664
2018-07-01T06:59:16.251Z,59840
2018-07-01T07:00:15.744Z,58624
2018-07-01T07:01:16.290Z,61600
2018-07-01T07:02:15.987Z,61536
2018-07-01T07:03:16.242Z,62240
2018-07-01T07:04:15.987Z,65440
2018-07-01T07:05:16.245Z,65760
2018-07-01T07:06:16.287Z,65248
2018-07-01T07:07:15.989Z,63904
2018-07-01T07:08:16.099Z,62176
2018-07-01T07:09:15.984Z,60960
2018-07-01T07:10:15.990Z,60736
2018-07-01T07:11:15.721Z,60288
2018-07-01T07:12:16.243Z,60640
2018-07-01T07:13:16.240Z,16608
2018-07-01T07:14:16.238Z,42976
2018-07-01T07:15:15.988Z,62304
2018-07-01T07:16:16.084Z,65920
2018-07-01T07:17:15.994Z,62944
2018-07-01T07:18:16.243Z,28448
2018-07-01T07:19:15.988Z,20320
2018-07-01T07:20:16.252Z,64352
2018-07-01T07:21:15.995Z,60096
2018-07-01T07:22:16.249Z,58592
2018-07-01T07:23:16.012Z,56640
2018-07-01T07:24:16.256Z,56672
2018-07-01T07:25:15.998Z,56640
2018-07-01T07:26:16.255Z,58144
2018-07-01T07:27:16.253Z,60544
2018-07-01T07:28:16.003Z,59200
2018-07-01T07:29:16.009Z,58432
2018-07-01T07:30:16.010Z,60960
2018-07-01T07:31:16.267Z,63808
2018-07-01T07:32:16.014Z,65632
2018-07-01T07:33:16.265Z,53280
2018-07-01T07:34:16.273Z,63840
2018-07-01T07:35:16.271Z,63360
2018-07-01T07:36:16.278Z,66240
2018-07-01T07:37:15.763Z,62560
2018-07-01T07:38:15.765Z,6780
2018-07-01T07:39:16.281Z,25760
2018-07-01T07:40:16.281Z,69408
2018-07-01T07:41:16.283Z,70240
2018-07-01T07:42:16.033Z,50656
2018-07-01T07:43:16.297Z,61632
2018-07-01T07:44:16.294Z,68576
2018-07-01T07:45:16.588Z,68416
2018-07-01T07:46:15.780Z,60448
2018-07-01T07:47:16.052Z,58944
2018-07-01T07:48:16.040Z,63680
2018-07-01T07:49:16.052Z,63488
2018-07-01T07:50:16.304Z,63904
2018-07-01T07:51:16.307Z,63520
2018-07-01T07:52:16.579Z,65184
2018-07-01T07:53:16.339Z,68096
2018-07-01T07:54:15.800Z,65376
2018-07-01T07:55:16.316Z,40832
2018-07-01T07:56:15.801Z,14684
2018-07-01T07:57:16.314Z,9228
2018-07-01T07:58:15.548Z,9868
2018-07-01T07:59:16.325Z,8908
2018-07-01T08:00:16.070Z,9896
2018-07-01T08:01:16.332Z,7888
2018-07-01T08:02:16.347Z,6524
2018-07-01T08:03:16.337Z,5432
2018-07-01T08:04:16.342Z,5180
2018-07-01T08:05:16.348Z,5124
2018-07-01T08:06:16.337Z,5488
2018-07-01T08:07:16.400Z,4724
2018-07-01T08:08:16.347Z,4732
2018-07-01T08:09:15.833Z,3940
2018-07-01T08:10:16.347Z,4772
2018-07-01T08:11:16.351Z,4432
2018-07-01T08:12:16.098Z,4056
2018-07-01T08:13:16.153Z,3988
2018-07-01T08:14:16.094Z,3960
2018-07-01T08:15:16.094Z,3976
2018-07-01T08:16:16.358Z,4012
2018-07-01T08:17:16.354Z,4068
2018-07-01T08:18:16.351Z,4136
2018-07-01T08:19:16.354Z,4180
2018-07-01T08:20:16.105Z,4252
2018-07-01T08:21:15.841Z,4316
2018-07-01T08:22:16.099Z,4360
2018-07-01T08:23:16.360Z,4348
2018-07-01T08:24:16.107Z,4280
2018-07-01T08:25:16.365Z,4340
2018-07-01T08:26:16.361Z,4384
2018-07-01T08:27:16.099Z,4228
2018-07-01T08:28:16.353Z,4256
2018-07-01T08:29:16.101Z,4708
2018-07-01T08:30:15.842Z,5364
2018-07-01T08:31:16.094Z,5964
2018-07-01T08:32:16.099Z,5812
2018-07-01T08:33:16.098Z,5168
2018-07-01T08:34:16.092Z,4440
2018-07-01T08:35:16.099Z,3908
2018-07-01T08:36:16.088Z,3748
2018-07-01T08:37:15.833Z,3876
2018-07-01T08:38:16.091Z,4096
2018-07-01T08:39:16.347Z,4176
2018-07-01T08:40:16.602Z,4296
2018-07-01T08:41:16.397Z,4352
2018-07-01T08:42:16.083Z,4380
2018-07-01T08:43:16.088Z,4212
2018-07-01T08:44:16.082Z,4368
2018-07-01T08:45:16.083Z,3912
2018-07-01T08:46:16.496Z,3784
2018-07-01T08:47:16.335Z,3744
2018-07-01T08:48:16.336Z,3748
2018-07-01T08:49:16.077Z,3660
2018-07-01T08:50:15.809Z,3592
2018-07-01T08:51:15.807Z,3572
2018-07-01T08:52:16.321Z,3572
2018-07-01T08:53:16.317Z,3584
2018-07-01T08:54:16.057Z,3576
2018-07-01T08:55:16.315Z,3560
2018-07-01T08:56:16.059Z,3544
2018-07-01T08:57:16.311Z,3532
2018-07-01T08:58:16.048Z,3512
2018-07-01T08:59:15.789Z,3496
2018-07-01T09:00:16.300Z,3504
2018-07-01T09:01:16.299Z,3480
2018-07-01T09:02:15.783Z,3476
2018-07-01T09:03:16.039Z,3492
2018-07-01T09:04:16.290Z,3516
2018-07-01T09:05:16.032Z,3576
2018-07-01T09:06:16.028Z,3556
2018-07-01T09:07:16.291Z,3616
2018-07-01T09:08:16.281Z,3776
2018-07-01T09:09:16.018Z,3908
2018-07-01T09:10:16.055Z,4052
2018-07-01T09:11:16.286Z,4084
2018-07-01T09:12:16.012Z,4008
2018-07-01T09:13:16.271Z,3912
2018-07-01T09:14:16.267Z,3808
2018-07-01T09:15:16.266Z,3796
2018-07-01T09:16:16.010Z,3752
2018-07-01T09:17:16.100Z,3736
2018-07-01T09:18:15.997Z,3700
2018-07-01T09:19:15.730Z,3672
2018-07-01T09:20:16.249Z,3672
2018-07-01T09:21:15.993Z,3708
2018-07-01T09:22:16.245Z,3840
2018-07-01T09:23:16.238Z,4044
2018-07-01T09:24:16.236Z,4140
2018-07-01T09:25:15.721Z,3856
2018-07-01T09:26:16.243Z,3668
2018-07-01T09:27:16.231Z,3432
2018-07-01T09:28:16.237Z,3676
2018-07-01T09:29:16.223Z,3680
2018-07-01T09:30:16.236Z,3768
2018-07-01T09:31:16.224Z,3908
2018-07-01T09:32:15.960Z,4132
2018-07-01T09:33:16.209Z,4076
2018-07-01T09:34:15.972Z,3920
2018-07-01T09:35:16.214Z,3140
2018-07-01T09:36:15.956Z,3040
2018-07-01T09:37:16.206Z,3056
2018-07-01T09:38:16.202Z,3416
2018-07-01T09:39:15.942Z,3476
2018-07-01T09:40:15.679Z,3556
2018-07-01T09:41:16.197Z,3680
2018-07-01T09:42:15.937Z,3736
2018-07-01T09:43:15.984Z,3632
2018-07-01T09:44:15.925Z,3616
2018-07-01T09:45:15.930Z,3836
2018-07-01T09:46:15.920Z,4184
2018-07-01T09:47:16.175Z,4532
2018-07-01T09:48:16.172Z,4700
2018-07-01T09:49:16.172Z,4844
2018-07-01T09:50:15.981Z,4764
2018-07-01T09:51:15.924Z,3680
2018-07-01T09:52:15.900Z,3688
2018-07-01T09:53:15.899Z,3232
2018-07-01T09:54:16.157Z,3436
2018-07-01T09:55:16.151Z,2552
2018-07-01T09:56:15.901Z,3164
2018-07-01T09:57:16.155Z,3196
2018-07-01T09:58:15.890Z,3172
2018-07-01T09:59:15.880Z,3216
2018-07-01T10:00:15.891Z,3228
2018-07-01T10:01:16.226Z,3196
2018-07-01T10:02:16.143Z,3340
2018-07-01T10:03:15.874Z,3336
2018-07-01T10:04:16.128Z,3196
2018-07-01T10:05:16.130Z,3124
2018-07-01T10:06:15.865Z,3140
2018-07-01T10:07:15.865Z,3200
2018-07-01T10:08:15.605Z,3312
2018-07-01T10:09:16.116Z,3400
2018-07-01T10:10:15.852Z,3360
2018-07-01T10:11:15.854Z,3192
2018-07-01T10:12:16.108Z,3100
2018-07-01T10:13:16.100Z,3036
2018-07-01T10:14:15.845Z,2928
2018-07-01T10:15:15.841Z,2944
2018-07-01T10:16:15.846Z,2932
2018-07-01T10:17:16.098Z,2912
2018-07-01T10:18:16.092Z,2908
2018-07-01T10:19:15.830Z,2912
2018-07-01T10:20:16.110Z,2932
2018-07-01T10:21:16.082Z,2928
2018-07-01T10:22:15.823Z,2904
2018-07-01T10:23:16.075Z,2876
2018-07-01T10:24:15.816Z,2864
2018-07-01T10:25:15.812Z,2856
2018-07-01T10:26:15.302Z,2848
2018-07-01T10:27:16.074Z,2848
2018-07-01T10:28:15.806Z,2840
2018-07-01T10:29:15.809Z,2836
2018-07-01T10:30:15.800Z,2832
2018-07-01T10:31:16.059Z,2824
2018-07-01T10:32:15.796Z,2808
2018-07-01T10:33:16.055Z,2796
2018-07-01T10:34:16.066Z,2788
2018-07-01T10:35:16.048Z,2792
2018-07-01T10:36:16.042Z,2792
2018-07-01T10:37:16.043Z,2784
2018-07-01T10:38:16.034Z,2788
2018-07-01T10:39:16.035Z,2780
2018-07-01T10:40:16.289Z,2776
2018-07-01T10:41:16.027Z,2772
2018-07-01T10:42:16.021Z,2768
2018-07-01T10:43:16.021Z,2760
2018-07-01T10:44:15.765Z,2756
2018-07-01T10:45:16.015Z,2756
2018-07-01T10:46:15.774Z,2752
2018-07-01T10:47:15.751Z,2748
2018-07-01T10:48:16.007Z,2752
2018-07-01T10:49:15.747Z,2752
2018-07-01T10:50:16.008Z,2752
2018-07-01T10:51:15.797Z,2760
2018-07-01T10:52:16.000Z,2760
2018-07-01T10:53:15.996Z,2756
2018-07-01T10:54:15.791Z,2756
2018-07-01T10:55:15.732Z,2752
2018-07-01T10:56:15.989Z,2744
2018-07-01T10:57:15.983Z,2740
2018-07-01T10:58:15.468Z,2728
2018-07-01T10:59:15.980Z,2724
2018-07-01T11:00:15.464Z,2724
2018-07-01T11:01:15.989Z,2720
2018-07-01T11:02:15.975Z,2712
2018-07-01T11:03:15.715Z,2708
2018-07-01T11:04:15.971Z,2704
2018-07-01T11:05:15.963Z,2704
2018-07-01T11:06:16.734Z,2700
2018-07-01T11:07:15.701Z,2692
2018-07-01T11:08:15.959Z,2688
2018-07-01T11:09:15.692Z,2680
2018-07-01T11:10:15.950Z,2680
2018-07-01T11:11:15.693Z,2676
2018-07-01T11:12:15.697Z,2672
2018-07-01T11:13:15.687Z,2680
2018-07-01T11:14:15.947Z,2676
2018-07-01T11:15:15.941Z,2676
2018-07-01T11:16:15.420Z,2672
2018-07-01T11:17:15.932Z,2672
2018-07-01T11:18:15.673Z,2664
2018-07-01T11:19:15.672Z,2660
2018-07-01T11:20:15.790Z,2652
2018-07-01T11:21:15.925Z,2648
2018-07-01T11:22:15.670Z,2644
2018-07-01T11:23:15.915Z,2640
2018-07-01T11:24:15.657Z,2632
2018-07-01T11:25:15.660Z,2628
2018-07-01T11:26:15.655Z,2620
2018-07-01T11:27:16.891Z,2616
2018-07-01T11:28:15.655Z,2620
2018-07-01T11:29:15.914Z,2620
2018-07-01T11:30:15.647Z,2612
2018-07-01T11:31:15.382Z,2608
2018-07-01T11:32:15.643Z,2604
2018-07-01T11:33:15.956Z,2600
2018-07-01T11:34:15.380Z,2600
2018-07-01T11:35:15.826Z,2592
2018-07-01T11:36:15.890Z,2592
2018-07-01T11:37:15.625Z,2584
2018-07-01T11:38:15.746Z,2580
2018-07-01T11:39:15.363Z,2576
2018-07-01T11:40:15.879Z,2572
2018-07-01T11:41:15.621Z,2568
2018-07-01T11:42:15.617Z,2572
2018-07-01T11:43:15.865Z,2572
2018-07-01T11:44:15.351Z,2568
2018-07-01T11:45:15.867Z,2564
2018-07-01T11:46:15.609Z,2564
2018-07-01T11:47:15.345Z,2560
2018-07-01T11:48:15.606Z,2560
2018-07-01T11:49:15.339Z,2552
2018-07-01T11:50:15.854Z,2548
2018-07-01T11:51:15.852Z,2548
2018-07-01T11:52:15.962Z,2544
2018-07-01T11:53:15.587Z,2540
2018-07-01T11:54:15.583Z,2540
2018-07-01T11:55:15.842Z,2536
2018-07-01T11:56:15.835Z,2532
2018-07-01T11:57:15.834Z,2532
2018-07-01T11:58:15.661Z,2528
2018-07-01T11:59:15.843Z,2528
2018-07-01T12:00:15.571Z,2532
2018-07-01T12:01:15.832Z,2528
2018-07-01T12:02:15.827Z,2532
2018-07-01T12:03:15.310Z,2532
2018-07-01T12:04:15.569Z,2528
2018-07-01T12:05:24.436Z,2532
2018-07-01T12:06:15.304Z,2528
2018-07-01T12:07:15.298Z,2524
2018-07-01T12:08:15.552Z,2524
2018-07-01T12:09:15.038Z,2524
2018-07-01T12:10:15.805Z,2520
2018-07-01T12:11:15.800Z,2524
2018-07-01T12:12:15.546Z,2524
2018-07-01T12:13:15.800Z,2524
2018-07-01T12:14:15.278Z,2520
2018-07-01T12:15:15.792Z,2516
2018-07-01T12:16:15.017Z,2508
2018-07-01T12:17:15.788Z,2504
2018-07-01T12:18:15.268Z,2500
2018-07-01T12:19:15.529Z,2500
2018-07-01T12:20:15.777Z,2496
2018-07-01T12:21:15.775Z,2492
2018-07-01T12:22:15.527Z,2492
2018-07-01T12:23:15.605Z,2488
2018-07-01T12:24:15.519Z,2492
2018-07-01T12:25:15.763Z,2488
2018-07-01T12:26:15.762Z,2508
2018-07-01T12:27:15.510Z,2524
2018-07-01T12:28:15.820Z,2540
2018-07-01T12:29:15.757Z,2516
2018-07-01T12:30:15.500Z,2496
2018-07-01T12:31:15.239Z,2496
2018-07-01T12:32:15.488Z,2500
2018-07-01T12:33:15.750Z,2504
2018-07-01T12:34:15.486Z,2504
2018-07-01T12:35:15.490Z,2500
2018-07-01T12:36:15.478Z,2500
2018-07-01T12:37:15.490Z,2496
2018-07-01T12:38:15.732Z,2492
2018-07-01T12:39:15.218Z,2488
2018-07-01T12:40:15.735Z,2484
2018-07-01T12:41:15.465Z,2484
2018-07-01T12:42:15.998Z,2480
2018-07-01T12:43:15.464Z,2480
2018-07-01T12:44:15.728Z,2476
2018-07-01T12:45:15.721Z,2480
2018-07-01T12:46:15.714Z,2476
2018-07-01T12:47:15.711Z,2476
2018-07-01T12:48:15.456Z,2476
2018-07-01T12:49:15.450Z,2476
2018-07-01T12:50:15.699Z,2468
2018-07-01T12:51:15.184Z,2468
2018-07-01T12:52:15.692Z,2468
2018-07-01T12:53:15.446Z,2468
2018-07-01T12:54:15.689Z,2472
2018-07-01T12:55:15.428Z,2472
2018-07-01T12:56:15.871Z,2468
2018-07-01T12:57:15.433Z,2472
2018-07-01T12:58:15.425Z,2472
2018-07-01T12:59:15.683Z,2472
2018-07-01T13:00:15.675Z,2468
2018-07-01T13:01:15.680Z,2468
2018-07-01T13:02:15.441Z,2472
2018-07-01T13:03:15.726Z,2468
2018-07-01T13:04:15.408Z,2468
2018-07-01T13:05:15.414Z,2468
2018-07-01T13:06:15.660Z,2464
2018-07-01T13:07:15.402Z,2456
2018-07-01T13:08:15.651Z,2452
2018-07-01T13:09:15.650Z,2452
2018-07-01T13:10:15.392Z,2452
2018-07-01T13:11:15.393Z,2456
2018-07-01T13:12:15.564Z,2456
2018-07-01T13:13:15.126Z,2452
2018-07-01T13:14:15.384Z,2452
2018-07-01T13:15:15.643Z,2444
2018-07-01T13:16:15.634Z,2448
2018-07-01T13:17:15.635Z,2440
2018-07-01T13:18:15.118Z,2436
2018-07-01T13:19:15.635Z,2440
2018-07-01T13:20:15.624Z,2436
2018-07-01T13:21:15.630Z,2432
2018-07-01T13:22:15.626Z,2432
2018-07-01T13:23:15.106Z,2432
2018-07-01T13:24:15.620Z,2432
2018-07-01T13:25:15.499Z,2436
2018-07-01T13:26:15.358Z,2436
2018-07-01T13:27:15.607Z,2436
2018-07-01T13:28:15.101Z,2436
2018-07-01T13:29:15.604Z,2440
2018-07-01T13:30:15.607Z,2440
2018-07-01T13:31:15.343Z,2448
2018-07-01T13:32:15.600Z,2448
2018-07-01T13:33:15.337Z,2448
2018-07-01T13:34:15.336Z,2444